createdAt,value
2022-11-27T00:02:26.534Z,15.03
2022-11-27T00:04:53.344Z,17.20
2022-11-27T00:07:20.156Z,14.80
2022-11-27T00:09:47.092Z,14.57
2022-11-27T00:12:13.944Z,12.97
2022-11-27T00:14:40.721Z,13.90
2022-11-27T00:17:07.540Z,17.23
2022-11-27T00:19:34.333Z,13.80
2022-11-27T00:22:01.142Z,10.13
2022-11-27T00:24:28.112Z,16.37
2022-11-27T00:26:54.943Z,16.07
2022-11-27T00:29:22.028Z,12.83
2022-11-27T00:31:48.851Z,11.23
2022-11-27T00:34:15.816Z,12.70
2022-11-27T00:36:46.621Z,12.70
2022-11-27T00:39:15.237Z,9.17
2022-11-27T00:41:42.147Z,13.03
2022-11-27T00:44:08.957Z,12.40
2022-11-27T00:46:36.187Z,9.50
2022-11-27T00:49:05.564Z,9.33
2022-11-27T00:51:32.581Z,10.93
2022-11-27T00:54:00.010Z,10.93
2022-11-27T00:56:29.227Z,10.97
2022-11-27T00:58:56.520Z,11.97
2022-11-27T01:01:27.475Z,11.43
2022-11-27T01:03:55.981Z,11.47
2022-11-27T01:06:22.876Z,11.27
2022-11-27T01:08:49.747Z,12.97
2022-11-27T01:11:23.234Z,10.33
2022-11-27T01:13:49.995Z,12.10
2022-11-27T01:16:19.848Z,11.60
2022-11-27T01:18:49.162Z,11.17
2022-11-27T01:21:18.683Z,12.67
2022-11-27T01:23:46.418Z,12.07
2022-11-27T01:26:13.457Z,11.73
2022-11-27T01:28:40.775Z,15.57
2022-11-27T01:31:11.234Z,11.67
2022-11-27T01:33:38.423Z,11.43
2022-11-27T01:36:07.190Z,11.87
2022-11-27T01:38:34.614Z,14.67
2022-11-27T01:41:16.376Z,13.70
2022-11-27T01:43:53.470Z,13.67
2022-11-27T01:46:23.109Z,12.00
2022-11-27T01:48:51.980Z,11.67
2022-11-27T01:51:20.626Z,11.93
2022-11-27T01:53:47.748Z,12.37
2022-11-27T01:56:15.464Z,13.50
2022-11-27T01:58:42.524Z,13.97
2022-11-27T02:01:09.957Z,11.27
2022-11-27T02:03:36.876Z,16.40
2022-11-27T02:06:03.820Z,14.53
2022-11-27T02:08:30.956Z,14.17
2022-11-27T02:11:09.518Z,15.40
2022-11-27T02:13:41.166Z,11.67
2022-11-27T02:16:47.977Z,14.47
2022-11-27T02:19:27.471Z,12.90
2022-11-27T02:21:56.324Z,13.13
2022-11-27T02:24:43.168Z,10.40
2022-11-27T02:27:48.388Z,14.13
2022-11-27T02:30:16.164Z,11.90
2022-11-27T02:32:57.389Z,12.93
2022-11-27T02:35:52.358Z,17.37
2022-11-27T02:38:26.278Z,11.47
2022-11-27T02:41:21.468Z,13.53
2022-11-27T02:43:51.565Z,15.30
2022-11-27T02:46:20.403Z,13.77
2022-11-27T02:48:55.414Z,9.43
2022-11-27T02:51:35.385Z,11.83
2022-11-27T02:54:05.329Z,15.07
2022-11-27T02:56:33.834Z,13.60
2022-11-27T02:59:06.389Z,13.63
2022-11-27T03:01:38.782Z,16.53
2022-11-27T03:04:10.948Z,13.80
2022-11-27T03:06:46.048Z,13.97
2022-11-27T03:09:18.886Z,15.27
2022-11-27T03:11:46.312Z,13.77
2022-11-27T03:14:15.373Z,18.77
2022-11-27T03:17:02.570Z,15.77
2022-11-27T03:20:01.952Z,14.87
2022-11-27T03:22:28.783Z,12.17
2022-11-27T03:24:55.592Z,13.37
2022-11-27T03:27:30.575Z,15.27
2022-11-27T03:30:00.588Z,14.97
2022-11-27T03:32:28.770Z,16.30
2022-11-27T03:34:56.356Z,15.30
2022-11-27T03:37:24.128Z,17.77
2022-11-27T03:39:52.771Z,16.93
2022-11-27T03:42:25.607Z,15.60
2022-11-27T03:45:06.325Z,13.37
2022-11-27T03:48:03.957Z,15.83
2022-11-27T03:50:41.677Z,14.23
2022-11-27T03:53:27.544Z,16.60
2022-11-27T03:56:12.332Z,17.63
2022-11-27T03:58:46.036Z,11.97
2022-11-27T04:01:15.334Z,15.00
2022-11-27T04:03:42.181Z,13.17
2022-11-27T04:06:09.104Z,16.17
2022-11-27T04:08:35.844Z,12.77
2022-11-27T04:11:02.589Z,17.93
2022-11-27T04:13:29.308Z,12.77
2022-11-27T04:15:56.131Z,15.90
2022-11-27T04:18:22.924Z,14.97
2022-11-27T04:20:49.732Z,14.27
2022-11-27T04:23:16.533Z,14.77
2022-11-27T04:25:43.314Z,14.67
2022-11-27T04:28:10.260Z,14.33
2022-11-27T04:30:37.133Z,13.90
2022-11-27T04:33:04.053Z,18.17
2022-11-27T04:35:30.774Z,15.13
2022-11-27T04:37:58.156Z,14.80
2022-11-27T04:40:25.110Z,15.20
2022-11-27T04:42:52.087Z,16.73
2022-11-27T04:45:18.865Z,15.10
2022-11-27T04:47:45.694Z,14.43
2022-11-27T04:50:12.542Z,13.60
2022-11-27T04:52:39.390Z,14.30
2022-11-27T04:55:06.682Z,14.47
2022-11-27T04:57:33.708Z,15.50
2022-11-27T05:00:00.583Z,12.67
2022-11-27T05:02:27.514Z,14.23
2022-11-27T05:04:54.757Z,16.27
2022-11-27T05:07:21.556Z,15.77
2022-11-27T05:09:48.544Z,13.43
2022-11-27T05:12:15.331Z,13.70
2022-11-27T05:14:42.389Z,13.90
2022-11-27T05:17:09.962Z,15.70
2022-11-27T05:19:36.851Z,14.00
2022-11-27T05:22:03.636Z,14.43
2022-11-27T05:24:30.456Z,11.83
2022-11-27T05:26:57.504Z,16.00
2022-11-27T05:29:25.912Z,12.87
2022-11-27T05:31:53.054Z,12.63
2022-11-27T05:34:20.124Z,15.50
2022-11-27T05:36:47.312Z,15.40
2022-11-27T05:39:14.517Z,12.37
2022-11-27T05:41:43.371Z,12.53
2022-11-27T05:44:12.941Z,15.77
2022-11-27T05:46:40.334Z,12.43
2022-11-27T05:49:07.246Z,16.53
2022-11-27T05:51:33.988Z,13.00
2022-11-27T05:54:00.727Z,12.30
2022-11-27T05:56:27.457Z,12.43
2022-11-27T05:58:54.258Z,14.70
2022-11-27T06:01:21.311Z,14.93
2022-11-27T06:03:48.200Z,11.20
2022-11-27T06:06:17.746Z,11.30
2022-11-27T06:08:45.779Z,14.73
2022-11-27T06:11:15.784Z,12.57
2022-11-27T06:13:43.329Z,11.73
2022-11-27T06:16:22.094Z,9.87
2022-11-27T06:18:51.173Z,12.17
2022-11-27T06:21:18.414Z,11.77
2022-11-27T06:23:45.856Z,11.30
2022-11-27T06:26:19.679Z,11.73
2022-11-27T06:28:47.653Z,12.67
2022-11-27T06:31:18.546Z,11.23
2022-11-27T06:33:46.727Z,11.73
2022-11-27T06:36:13.608Z,10.90
2022-11-27T06:38:40.660Z,11.93
2022-11-27T06:41:13.254Z,12.73
2022-11-27T06:43:40.770Z,11.37
2022-11-27T06:46:11.404Z,10.43
2022-11-27T06:48:38.242Z,14.47
2022-11-27T06:51:07.125Z,10.97
2022-11-27T06:53:36.737Z,12.00
2022-11-27T06:56:05.052Z,10.00
2022-11-27T06:58:31.809Z,12.37
2022-11-27T07:00:59.959Z,11.57
2022-11-27T07:03:27.378Z,12.40
2022-11-27T07:05:54.411Z,9.13
2022-11-27T07:08:22.373Z,13.90
2022-11-27T07:10:49.267Z,11.07
2022-11-27T07:13:16.019Z,10.60
2022-11-27T07:15:43.527Z,9.77
2022-11-27T07:18:10.738Z,11.13
2022-11-27T07:20:37.578Z,8.07
2022-11-27T07:23:04.574Z,10.47
2022-11-27T07:25:31.435Z,8.83
2022-11-27T07:27:58.248Z,9.13
2022-11-27T07:30:25.031Z,8.50
2022-11-27T07:32:51.807Z,12.83
2022-11-27T07:35:18.775Z,10.50
2022-11-27T07:37:45.563Z,8.93
2022-11-27T07:40:14.853Z,9.47
2022-11-27T07:42:41.928Z,14.60
2022-11-27T07:45:09.685Z,10.03
2022-11-27T07:47:36.975Z,8.80
2022-11-27T07:50:05.602Z,8.67
2022-11-27T07:52:35.526Z,10.40
2022-11-27T07:55:06.550Z,9.07
2022-11-27T07:57:33.328Z,10.90
2022-11-27T08:00:00.093Z,10.03
2022-11-27T08:02:26.914Z,11.00
2022-11-27T08:04:53.677Z,11.57
2022-11-27T08:07:20.548Z,8.90
2022-11-27T08:09:47.512Z,10.13
2022-11-27T08:12:14.593Z,9.07
2022-11-27T08:14:41.600Z,11.90
2022-11-27T08:17:12.483Z,11.17
2022-11-27T08:19:39.287Z,10.20
2022-11-27T08:22:07.019Z,11.80
2022-11-27T08:24:34.039Z,8.20
2022-11-27T08:27:00.838Z,11.93
2022-11-27T08:29:32.612Z,9.17
2022-11-27T08:32:00.812Z,10.27
2022-11-27T08:34:27.644Z,9.67
2022-11-27T08:36:54.438Z,7.87
2022-11-27T08:39:21.409Z,12.50
2022-11-27T08:41:48.168Z,8.90
2022-11-27T08:44:14.920Z,8.10
2022-11-27T08:46:43.672Z,8.03
2022-11-27T08:49:10.452Z,10.33
2022-11-27T08:51:37.271Z,8.67
2022-11-27T08:54:04.406Z,8.30
2022-11-27T08:56:31.563Z,7.60
2022-11-27T08:58:58.895Z,7.73
2022-11-27T09:01:28.090Z,8.33
2022-11-27T09:03:55.202Z,7.30
2022-11-27T09:06:28.290Z,8.03
2022-11-27T09:09:04.073Z,8.27
2022-11-27T09:11:32.269Z,8.60
2022-11-27T09:14:04.090Z,7.63
2022-11-27T09:16:31.218Z,9.07
2022-11-27T09:18:58.510Z,8.77
2022-11-27T09:21:32.734Z,7.53
2022-11-27T09:24:01.196Z,6.83
2022-11-27T09:26:29.268Z,6.40
2022-11-27T09:28:58.272Z,6.30
2022-11-27T09:31:26.144Z,9.13
2022-11-27T09:33:53.186Z,6.70
2022-11-27T09:36:24.160Z,6.80
2022-11-27T09:38:51.878Z,5.83
2022-11-27T09:41:33.709Z,7.60
2022-11-27T09:44:16.839Z,8.17
2022-11-27T09:46:44.689Z,7.07
2022-11-27T09:49:19.942Z,9.00
2022-11-27T09:52:01.553Z,7.23
2022-11-27T09:54:42.035Z,7.87
2022-11-27T09:57:16.477Z,8.37
2022-11-27T09:59:50.967Z,6.87
2022-11-27T10:02:27.372Z,6.83
2022-11-27T10:08:07.211Z,6.73
2022-11-27T10:10:34.329Z,7.83
2022-11-27T10:13:13.646Z,7.47
2022-11-27T10:15:50.650Z,5.90
2022-11-27T10:18:42.696Z,7.33
2022-11-27T10:21:25.881Z,6.77
2022-11-27T10:24:04.808Z,6.23
2022-11-27T10:26:40.726Z,5.77
2022-11-27T10:29:34.806Z,5.50
2022-11-27T10:32:52.794Z,6.83
2022-11-27T10:35:13.890Z,5.90
2022-11-27T10:38:14.176Z,5.80
2022-11-27T10:41:03.017Z,7.70
2022-11-27T10:43:29.847Z,6.33
2022-11-27T10:46:04.047Z,5.63
2022-11-27T10:48:31.154Z,5.20
2022-11-27T10:50:58.053Z,7.07
2022-11-27T10:53:32.386Z,7.63
2022-11-27T10:56:20.311Z,6.43
2022-11-27T10:58:58.936Z,8.00
2022-11-27T11:01:28.280Z,6.77
2022-11-27T11:04:35.890Z,6.97
2022-11-27T11:06:57.354Z,5.13
2022-11-27T11:09:31.081Z,4.70
2022-11-27T11:12:21.125Z,7.63
2022-11-27T11:14:59.956Z,7.30
2022-11-27T11:17:40.783Z,7.63
2022-11-27T11:20:20.511Z,5.83
2022-11-27T11:22:48.499Z,5.40
2022-11-27T11:25:20.674Z,4.97
2022-11-27T11:27:50.032Z,6.07
2022-11-27T11:30:23.306Z,6.57
2022-11-27T11:32:52.359Z,4.83
2022-11-27T11:35:30.627Z,3.93
2022-11-27T11:37:58.193Z,6.87
2022-11-27T11:40:35.002Z,7.53
2022-11-27T11:43:04.280Z,4.47
2022-11-27T11:45:33.393Z,6.00
2022-11-27T11:48:01.568Z,4.30
2022-11-27T11:50:54.781Z,3.80
2022-11-27T11:53:30.456Z,5.10
2022-11-27T11:56:09.860Z,4.03
2022-11-27T11:58:54.577Z,4.50
2022-11-27T12:01:38.824Z,5.47
2022-11-27T12:04:20.986Z,5.80
2022-11-27T12:07:11.991Z,6.03
2022-11-27T12:09:51.146Z,5.20
2022-11-27T12:12:37.804Z,4.63
2022-11-27T12:15:26.339Z,5.27
2022-11-27T12:18:44.445Z,4.13
2022-11-27T12:21:15.511Z,5.80
2022-11-27T12:23:57.023Z,5.40
2022-11-27T12:26:54.877Z,6.33
2022-11-27T12:29:36.485Z,5.47
2022-11-27T12:32:03.499Z,3.87
2022-11-27T12:34:59.511Z,4.93
2022-11-27T12:37:38.438Z,3.20
2022-11-27T12:40:39.237Z,4.70
2022-11-27T12:43:28.195Z,4.90
2022-11-27T12:46:05.608Z,5.87
2022-11-27T12:48:46.345Z,3.27
2022-11-27T12:51:22.581Z,4.23
2022-11-27T12:53:57.251Z,3.63
2022-11-27T12:56:45.150Z,4.97
2022-11-27T12:59:20.833Z,4.13
2022-11-27T13:02:11.325Z,3.70
2022-11-27T13:04:50.300Z,3.30
2022-11-27T13:07:21.782Z,4.10
2022-11-27T13:10:17.216Z,3.97
2022-11-27T13:13:10.951Z,5.70
2022-11-27T13:15:44.609Z,3.83
2022-11-27T13:18:26.557Z,3.33
2022-11-27T13:20:54.738Z,3.17
2022-11-27T13:23:22.521Z,4.40
2022-11-27T13:25:54.286Z,3.53
2022-11-27T13:28:50.294Z,3.87
2022-11-27T13:31:24.884Z,4.93
2022-11-27T13:33:57.829Z,3.53
2022-11-27T13:36:31.014Z,4.03
2022-11-27T13:39:02.057Z,3.73
2022-11-27T13:41:40.223Z,4.97
2022-11-27T13:44:28.627Z,3.13
2022-11-27T13:47:00.166Z,3.57
2022-11-27T13:49:32.907Z,4.03
2022-11-27T13:52:21.360Z,4.57
2022-11-27T13:55:03.079Z,4.13
2022-11-27T13:57:31.250Z,3.67
2022-11-27T14:00:01.098Z,6.77
2022-11-27T14:02:42.823Z,4.27
2022-11-27T14:05:11.215Z,4.10
2022-11-27T14:07:41.634Z,4.33
2022-11-27T14:10:14.797Z,3.03
2022-11-27T14:12:42.918Z,2.70
2022-11-27T14:15:18.765Z,2.93
2022-11-27T14:17:48.331Z,3.23
2022-11-27T14:20:18.289Z,4.33
2022-11-27T14:23:10.405Z,4.70
2022-11-27T14:25:38.971Z,2.03
2022-11-27T14:28:36.485Z,3.87
2022-11-27T14:31:04.420Z,4.13
2022-11-27T14:33:47.439Z,5.43
2022-11-27T14:36:26.003Z,4.10
2022-11-27T14:38:54.426Z,4.40
2022-11-27T14:41:23.578Z,3.17
2022-11-27T14:44:01.368Z,2.20
2022-11-27T14:46:29.124Z,4.70
2022-11-27T14:48:56.542Z,6.10
2022-11-27T14:51:35.264Z,4.53
2022-11-27T14:54:05.826Z,4.33
2022-11-27T14:56:35.903Z,3.93
2022-11-27T14:59:03.655Z,2.93
2022-11-27T15:01:33.255Z,3.67
2022-11-27T15:04:05.524Z,5.03
2022-11-27T15:06:46.520Z,4.07
2022-11-27T15:09:33.338Z,2.77
2022-11-27T15:12:18.759Z,3.27
2022-11-27T15:14:56.656Z,4.13
2022-11-27T15:17:29.561Z,3.40
2022-11-27T15:19:57.532Z,3.67
2022-11-27T15:22:24.846Z,2.53
2022-11-27T15:25:02.734Z,3.27
2022-11-27T15:27:46.259Z,7.67
2022-11-27T15:30:18.397Z,5.23
2022-11-27T15:32:52.995Z,3.03
2022-11-27T15:35:22.424Z,4.23
2022-11-27T15:37:51.371Z,2.77
2022-11-27T15:40:24.254Z,2.83
2022-11-27T15:42:51.225Z,5.07
2022-11-27T15:45:18.018Z,2.80
2022-11-27T15:47:45.159Z,3.93
2022-11-27T15:50:16.782Z,4.10
2022-11-27T15:52:43.939Z,3.23
2022-11-27T15:55:17.312Z,2.57
2022-11-27T15:57:44.340Z,2.93
2022-11-27T16:00:11.568Z,3.33
2022-11-27T16:02:39.267Z,2.90
2022-11-27T16:05:07.965Z,2.40
2022-11-27T16:07:35.117Z,2.90
2022-11-27T16:10:02.215Z,2.57
2022-11-27T16:12:29.274Z,2.30
2022-11-27T16:14:56.163Z,5.50
2022-11-27T16:17:23.031Z,4.33
2022-11-27T16:19:49.808Z,2.97
2022-11-27T16:22:16.567Z,3.77
2022-11-27T16:24:43.836Z,3.17
2022-11-27T16:27:11.051Z,4.07
2022-11-27T16:29:38.012Z,3.73
2022-11-27T16:32:06.127Z,4.20
2022-11-27T16:34:33.328Z,3.20
2022-11-27T16:37:00.134Z,3.20
2022-11-27T16:39:26.997Z,2.73
2022-11-27T16:41:53.806Z,2.90
2022-11-27T16:44:20.621Z,4.63
2022-11-27T16:46:47.636Z,5.03
2022-11-27T16:49:14.454Z,5.13
2022-11-27T16:51:41.966Z,4.30
2022-11-27T16:54:11.600Z,2.47
2022-11-27T16:56:38.723Z,3.07
2022-11-27T16:59:13.498Z,3.43
2022-11-27T17:01:41.696Z,4.17
2022-11-27T17:04:14.584Z,5.67
2022-11-27T17:06:41.394Z,2.50
2022-11-27T17:09:08.822Z,3.13
2022-11-27T17:11:37.340Z,4.07
2022-11-27T17:14:08.722Z,4.87
2022-11-27T17:16:36.614Z,3.60
2022-11-27T17:19:03.960Z,4.70
2022-11-27T17:21:32.586Z,2.87
2022-11-27T17:24:10.081Z,2.70
2022-11-27T17:26:42.420Z,4.37
2022-11-27T17:29:10.547Z,3.90
2022-11-27T17:31:38.090Z,3.97
2022-11-27T17:34:06.705Z,4.90
2022-11-27T17:36:37.133Z,4.03
2022-11-27T17:39:05.769Z,3.67
2022-11-27T17:41:33.080Z,3.53
2022-11-27T17:44:00.427Z,3.63
2022-11-27T17:46:29.340Z,4.13
2022-11-27T17:48:59.561Z,3.40
2022-11-27T17:51:30.946Z,2.90
2022-11-27T17:54:01.994Z,3.03
2022-11-27T17:56:29.544Z,2.77
2022-11-27T17:58:56.397Z,3.97
2022-11-27T18:01:26.145Z,3.63
2022-11-27T18:04:00.393Z,3.80
2022-11-27T18:06:27.798Z,3.67
2022-11-27T18:08:56.542Z,2.80
2022-11-27T18:11:26.021Z,3.57
2022-11-27T18:13:52.964Z,4.10
2022-11-27T18:16:35.364Z,3.90
2022-11-27T18:19:10.596Z,4.67
2022-11-27T18:21:38.559Z,3.07
2022-11-27T18:24:23.653Z,5.63
2022-11-27T18:27:08.740Z,4.50
2022-11-27T18:29:42.262Z,5.70
2022-11-27T18:32:09.792Z,4.30
2022-11-27T18:34:36.712Z,4.80
2022-11-27T18:37:04.181Z,2.80
2022-11-27T18:39:31.676Z,4.47
2022-11-27T18:41:58.667Z,3.40
2022-11-27T18:44:26.812Z,5.13
2022-11-27T18:46:53.699Z,3.80
2022-11-27T18:49:22.927Z,4.30
2022-11-27T18:51:51.555Z,3.00
2022-11-27T18:54:18.507Z,3.60
2022-11-27T18:56:45.387Z,4.07
2022-11-27T18:59:12.557Z,4.77
2022-11-27T19:01:42.399Z,4.33
2022-11-27T19:04:11.250Z,5.63
2022-11-27T19:06:39.793Z,3.40
2022-11-27T19:09:06.980Z,4.97
2022-11-27T19:11:35.255Z,3.70
2022-11-27T19:14:02.254Z,3.30
2022-11-27T19:16:34.598Z,3.90
2022-11-27T19:19:03.345Z,3.30
2022-11-27T19:21:32.003Z,5.13
2022-11-27T19:24:00.571Z,4.13
2022-11-27T19:26:30.342Z,4.10
2022-11-27T19:28:59.620Z,4.73
2022-11-27T19:31:27.250Z,4.50
2022-11-27T19:33:56.536Z,5.07
2022-11-27T19:36:23.528Z,4.43
2022-11-27T19:38:55.384Z,4.37
2022-11-27T19:41:22.411Z,4.07
2022-11-27T19:43:49.398Z,3.30
2022-11-27T19:46:20.375Z,2.87
2022-11-27T19:48:48.093Z,4.20
2022-11-27T19:51:15.603Z,5.07
2022-11-27T19:53:43.272Z,3.90
2022-11-27T19:56:10.825Z,4.07
2022-11-27T19:58:38.570Z,5.10
2022-11-27T20:01:14.176Z,4.53
2022-11-27T20:03:44.585Z,3.87
2022-11-27T20:06:16.447Z,4.87
2022-11-27T20:08:44.891Z,5.00
2022-11-27T20:11:16.171Z,4.73
2022-11-27T20:13:42.974Z,4.50
2022-11-27T20:16:12.343Z,3.93
2022-11-27T20:18:39.702Z,5.13
2022-11-27T20:21:17.714Z,3.00
2022-11-27T20:23:46.107Z,3.73
2022-11-27T20:26:18.993Z,3.47
2022-11-27T20:28:46.268Z,5.20
2022-11-27T20:31:18.159Z,4.13
2022-11-27T20:33:45.576Z,3.00
2022-11-27T20:36:15.176Z,4.53
2022-11-27T20:38:44.562Z,5.67
2022-11-27T20:41:14.536Z,4.40
2022-11-27T20:43:42.986Z,5.00
2022-11-27T20:46:13.018Z,2.90
2022-11-27T20:48:39.868Z,3.07
2022-11-27T20:51:13.800Z,4.60
2022-11-27T20:53:41.367Z,4.60
2022-11-27T20:56:09.776Z,6.13
2022-11-27T20:58:38.245Z,3.53
2022-11-27T21:01:18.234Z,4.67
2022-11-27T21:03:46.684Z,6.20
2022-11-27T21:06:15.288Z,7.03
2022-11-27T21:08:42.561Z,6.67
2022-11-27T21:11:25.243Z,4.83
2022-11-27T21:13:57.441Z,5.10
2022-11-27T21:16:29.314Z,6.37
2022-11-27T21:19:02.670Z,3.50
2022-11-27T21:21:30.194Z,4.33
2022-11-27T21:23:57.307Z,5.20
2022-11-27T21:26:24.928Z,6.27
2022-11-27T21:28:52.110Z,3.40
2022-11-27T21:31:22.385Z,4.50
2022-11-27T21:33:58.093Z,4.67
2022-11-27T21:36:27.738Z,4.57
2022-11-27T21:38:55.307Z,5.30
2022-11-27T21:41:22.638Z,5.00
2022-11-27T21:43:53.467Z,5.53
2022-11-27T21:46:22.630Z,4.17
2022-11-27T21:48:51.668Z,3.33
2022-11-27T21:51:21.258Z,4.73
2022-11-27T21:53:50.354Z,5.63
2022-11-27T21:56:19.850Z,4.07
2022-11-27T21:58:46.859Z,4.07
2022-11-27T22:01:16.568Z,5.43
2022-11-27T22:03:43.758Z,3.10
2022-11-27T22:06:13.151Z,4.17
2022-11-27T22:08:41.077Z,3.87
2022-11-27T22:11:14.301Z,3.17
2022-11-27T22:13:42.037Z,4.57
2022-11-27T22:16:18.807Z,4.63
2022-11-27T22:18:46.169Z,4.10
2022-11-27T22:21:13.905Z,3.67
2022-11-27T22:23:41.833Z,4.20
2022-11-27T22:26:11.763Z,3.83
2022-11-27T22:28:38.908Z,5.03
2022-11-27T22:31:14.790Z,3.77
2022-11-27T22:33:42.933Z,3.73
2022-11-27T22:36:18.671Z,3.93
2022-11-27T22:38:47.925Z,4.13
2022-11-27T22:41:15.915Z,3.67
2022-11-27T22:43:43.081Z,5.00
2022-11-27T22:46:20.379Z,4.50
2022-11-27T22:48:47.398Z,4.50
2022-11-27T22:51:14.247Z,5.77
2022-11-27T22:53:41.187Z,4.63
2022-11-27T22:56:11.828Z,4.07
2022-11-27T22:58:41.564Z,5.73
2022-11-27T23:01:21.035Z,4.43
2022-11-27T23:03:47.918Z,3.50
2022-11-27T23:06:16.651Z,5.13
2022-11-27T23:08:45.651Z,4.47
2022-11-27T23:11:16.344Z,5.97
2022-11-27T23:13:48.145Z,3.77
2022-11-27T23:16:17.644Z,3.97
2022-11-27T23:18:44.562Z,3.60
2022-11-27T23:21:16.587Z,4.37
2022-11-27T23:23:44.563Z,4.67
2022-11-27T23:26:18.227Z,4.53
2022-11-27T23:28:46.861Z,3.67
2022-11-27T23:31:32.132Z,4.60
2022-11-27T23:34:01.886Z,5.63
2022-11-27T23:36:30.448Z,4.70
2022-11-27T23:39:00.761Z,4.37
2022-11-27T23:41:28.201Z,3.40
2022-11-27T23:43:56.405Z,4.77
2022-11-27T23:46:26.794Z,3.90
2022-11-27T23:48:55.977Z,5.47
2022-11-27T23:51:25.988Z,4.40
2022-11-27T23:53:53.496Z,4.50
2022-11-27T23:56:25.315Z,4.40
2022-11-27T23:58:53.220Z,4.67
